createdAt,value
2022-09-21T00:01:32.747Z,0.3
2022-09-21T00:04:13.467Z,0.3
2022-09-21T00:06:44.057Z,0.3
2022-09-21T00:09:14.630Z,0.3
2022-09-21T00:11:45.186Z,0.3
2022-09-21T00:14:18.791Z,0.2
2022-09-21T00:16:49.472Z,0.1
2022-09-21T00:22:00.287Z,0.2
2022-09-21T00:24:30.867Z,0.2
2022-09-21T00:27:01.472Z,0.2
2022-09-21T00:29:32.080Z,0.2
2022-09-21T00:34:42.817Z,0.3
2022-09-21T00:37:13.405Z,0.4
2022-09-21T00:39:44.015Z,0.3
2022-09-21T00:42:14.779Z,0.4
2022-09-21T00:44:45.323Z,0.3
2022-09-21T00:47:15.875Z,0.3
2022-09-21T00:49:56.471Z,0.3
2022-09-21T00:52:27.045Z,0.1
2022-09-21T00:54:57.630Z,0.1
2022-09-21T00:57:28.178Z,0.0
2022-09-21T01:02:38.915Z,-0.1
2022-09-21T01:05:09.511Z,-0.1
2022-09-21T01:07:40.092Z,-0.1
2022-09-21T01:10:10.661Z,-0.1
2022-09-21T01:12:41.217Z,0.2
2022-09-21T01:15:11.813Z,0.3
2022-09-21T01:18:02.409Z,0.3
2022-09-21T01:20:32.990Z,0.3
2022-09-21T01:23:03.538Z,0.3
2022-09-21T01:25:34.105Z,0.3
2022-09-21T01:28:04.686Z,0.3
2022-09-21T01:30:35.285Z,0.4
2022-09-21T01:33:09.539Z,0.4
2022-09-21T01:35:40.111Z,0.4
2022-09-21T01:38:10.691Z,0.3
2022-09-21T01:43:11.425Z,0.0
2022-09-21T01:45:42.045Z,-0.1
2022-09-21T01:48:22.743Z,-0.2
2022-09-21T01:50:53.351Z,-0.4
2022-09-21T01:53:23.937Z,-0.5
2022-09-21T01:55:54.523Z,-0.5
2022-09-21T01:58:25.096Z,-0.6
2022-09-21T02:01:15.749Z,-0.6
2022-09-21T02:03:36.381Z,-0.6
2022-09-21T02:06:16.985Z,-0.6
2022-09-21T02:08:47.573Z,-0.7
2022-09-21T02:11:18.133Z,-0.7
2022-09-21T02:13:48.729Z,-0.8
2022-09-21T02:16:29.345Z,-0.9
2022-09-21T02:18:59.973Z,-0.9
2022-09-21T02:24:00.689Z,-0.8
2022-09-21T02:26:31.259Z,-0.8
2022-09-21T02:29:01.939Z,-0.8
2022-09-21T02:31:42.558Z,-0.8
2022-09-21T02:34:13.137Z,-0.8
2022-09-21T02:36:43.717Z,-0.9
2022-09-21T02:39:14.291Z,-0.9
2022-09-21T02:41:44.870Z,-1.1
2022-09-21T02:44:15.460Z,-1.1
2022-09-21T02:46:56.019Z,-1.2
2022-09-21T02:49:26.624Z,-1.1
2022-09-21T02:51:57.223Z,-1.1
2022-09-21T02:54:27.803Z,-1.2
2022-09-21T02:56:58.371Z,-1.3
2022-09-21T02:59:28.980Z,-1.3
2022-09-21T03:04:39.710Z,-1.4
2022-09-21T03:07:10.295Z,-1.3
2022-09-21T03:09:40.848Z,-1.3
2022-09-21T03:12:11.436Z,-1.3
2022-09-21T03:14:52.022Z,-1.4
2022-09-21T03:17:22.606Z,-1.4
2022-09-21T03:19:53.177Z,-1.4
2022-09-21T03:22:23.727Z,-1.5
2022-09-21T03:24:54.282Z,-1.6
2022-09-21T03:27:24.864Z,-1.7
2022-09-21T03:30:05.470Z,-1.8
2022-09-21T03:32:36.056Z,-1.9
2022-09-21T03:35:06.640Z,-1.9
2022-09-21T03:37:41.135Z,-1.9
2022-09-21T03:40:11.953Z,-1.8
2022-09-21T03:45:22.892Z,-1.8
2022-09-21T03:47:53.445Z,-1.8
2022-09-21T03:50:24.028Z,-1.9
2022-09-21T03:52:54.584Z,-1.9
2022-09-21T03:55:25.174Z,-1.8
2022-09-21T03:57:55.720Z,-1.7
2022-09-21T04:00:36.306Z,-1.7
2022-09-21T04:03:06.874Z,-1.8
2022-09-21T04:05:37.482Z,-1.8
2022-09-21T04:08:08.056Z,-1.7
2022-09-21T04:10:38.607Z,-1.7
2022-09-21T04:13:19.193Z,-1.8
2022-09-21T04:15:49.819Z,-1.7
2022-09-21T04:18:20.582Z,-1.7
2022-09-21T04:20:51.331Z,-1.8
2022-09-21T04:25:52.071Z,-1.9
2022-09-21T04:28:32.671Z,-2.0
2022-09-21T04:31:03.330Z,-2.0
2022-09-21T04:33:34.189Z,-2.0
2022-09-21T04:36:04.769Z,-2.0
2022-09-21T04:38:35.349Z,-2.0
2022-09-21T04:41:05.920Z,-1.9
2022-09-21T04:43:46.505Z,-2.0
2022-09-21T04:46:17.156Z,-2.1
2022-09-21T04:48:47.799Z,-2.3
2022-09-21T04:51:18.519Z,-2.3
2022-09-21T04:53:49.130Z,-2.3
2022-09-21T04:56:19.725Z,-2.4
2022-09-21T04:59:00.314Z,-2.5
2022-09-21T05:01:30.914Z,-2.5
2022-09-21T05:06:41.769Z,-2.5
2022-09-21T05:09:12.354Z,-2.5
2022-09-21T05:11:52.942Z,-2.4
2022-09-21T05:14:23.522Z,-2.2
2022-09-21T05:16:54.114Z,-1.9
2022-09-21T05:19:24.716Z,-1.7
2022-09-21T05:21:55.279Z,-1.4
2022-09-21T05:24:25.853Z,-1.5
2022-09-21T05:27:06.455Z,-1.5
2022-09-21T05:29:37.054Z,-1.5
2022-09-21T05:32:07.632Z,-1.5
2022-09-21T05:34:38.221Z,-1.4
2022-09-21T05:37:08.795Z,-1.4
2022-09-21T05:39:39.401Z,-1.4
2022-09-21T05:42:20.002Z,-1.5
2022-09-21T05:47:20.708Z,-1.5
2022-09-21T05:49:51.304Z,-1.5
2022-09-21T05:52:21.847Z,-1.5
2022-09-21T05:54:52.418Z,-1.3
2022-09-21T05:57:33.005Z,-1.3
2022-09-21T06:00:03.595Z,-1.2
2022-09-21T06:02:34.227Z,-1.0
2022-09-21T06:05:04.915Z,-1.0
2022-09-21T06:07:35.498Z,-0.9
2022-09-21T06:10:06.053Z,-0.9
2022-09-21T06:12:46.652Z,-0.7
2022-09-21T06:15:17.252Z,-0.6
2022-09-21T06:17:48.106Z,-0.4
2022-09-21T06:20:18.711Z,-0.2
2022-09-21T06:22:49.370Z,0.1
2022-09-21T06:28:00.134Z,0.5
2022-09-21T06:30:30.826Z,0.7
2022-09-21T06:33:01.544Z,1.1
2022-09-21T06:35:32.145Z,1.4
2022-09-21T06:38:02.749Z,1.5
2022-09-21T06:40:43.359Z,1.9
2022-09-21T06:43:14.004Z,2.2
2022-09-21T06:45:44.602Z,2.3
2022-09-21T06:48:15.456Z,2.5
2022-09-21T06:50:46.057Z,2.8
2022-09-21T06:53:16.659Z,3.0
2022-09-21T06:55:57.243Z,3.2
2022-09-21T06:58:27.829Z,3.4
2022-09-21T07:00:58.513Z,3.6
2022-09-21T07:03:29.497Z,3.7
2022-09-21T07:11:17.381Z,4.2
2022-09-21T07:13:48.131Z,4.3
2022-09-21T07:16:18.766Z,4.3
2022-09-21T07:18:49.646Z,4.2
2022-09-21T07:21:20.482Z,4.3
2022-09-21T07:23:51.051Z,4.3
2022-09-21T07:26:32.892Z,4.4
2022-09-21T07:29:03.496Z,4.5
2022-09-21T07:31:34.106Z,4.6
2022-09-21T07:34:04.848Z,4.8
2022-09-21T07:36:35.424Z,4.9
2022-09-21T07:39:16.041Z,5.2
2022-09-21T07:41:46.616Z,5.4
2022-09-21T07:44:17.205Z,5.6
2022-09-21T07:49:17.940Z,6.1
2022-09-21T07:51:48.513Z,6.2
2022-09-21T07:54:24.337Z,6.4
2022-09-21T07:56:54.940Z,6.6
2022-09-21T07:59:25.516Z,6.8
2022-09-21T08:02:06.206Z,6.9
2022-09-21T08:04:27.118Z,7.0
2022-09-21T08:07:07.700Z,7.1
2022-09-21T08:09:48.272Z,7.1
2022-09-21T08:12:18.849Z,7.2
2022-09-21T08:14:49.436Z,7.2
2022-09-21T08:17:20.851Z,7.2
2022-09-21T08:19:51.434Z,7.4
2022-09-21T08:22:22.028Z,7.4
2022-09-21T08:25:02.624Z,7.4
2022-09-21T08:30:03.377Z,7.6
2022-09-21T08:32:50.256Z,7.6
2022-09-21T08:35:01.190Z,7.8
2022-09-21T08:37:31.765Z,8.0
2022-09-21T08:40:12.432Z,8.0
2022-09-21T08:42:45.503Z,8.1
2022-09-21T08:45:18.015Z,8.3
2022-09-21T08:47:48.576Z,8.4
2022-09-21T08:50:19.157Z,8.6
2022-09-21T08:52:49.733Z,8.6
2022-09-21T08:55:30.344Z,8.7
2022-09-21T08:58:00.917Z,8.8
2022-09-21T09:00:31.502Z,9.0
2022-09-21T09:03:02.170Z,9.2
2022-09-21T09:05:32.805Z,9.5
2022-09-21T09:10:43.568Z,9.7
2022-09-21T09:13:14.138Z,10.0
2022-09-21T09:15:44.781Z,10.5
2022-09-21T09:18:15.474Z,10.8
2022-09-21T09:20:50.480Z,11.0
2022-09-21T09:23:31.142Z,11.0
2022-09-21T09:26:01.724Z,10.9
2022-09-21T09:28:32.328Z,11.0
2022-09-21T09:31:03.587Z,11.0
2022-09-21T09:33:34.362Z,11.1
2022-09-21T09:36:04.986Z,11.2
2022-09-21T09:38:44.262Z,11.2
2022-09-21T09:41:14.841Z,11.3
2022-09-21T09:43:45.444Z,11.4
2022-09-21T09:46:16.038Z,11.4
2022-09-21T09:51:16.931Z,11.6
2022-09-21T09:53:57.523Z,11.5
2022-09-21T09:56:30.782Z,11.5
2022-09-21T09:59:01.359Z,11.6
2022-09-21T10:01:32.114Z,11.8
2022-09-21T10:04:03.653Z,11.7
2022-09-21T10:06:34.371Z,11.8
2022-09-21T10:09:07.160Z,11.9
2022-09-21T10:11:37.729Z,11.8
2022-09-21T10:14:08.306Z,11.7
2022-09-21T10:16:38.897Z,11.8
2022-09-21T10:19:09.506Z,11.8
2022-09-21T10:21:52.062Z,11.8
2022-09-21T10:24:22.781Z,11.8
2022-09-21T10:26:53.365Z,11.7
2022-09-21T10:31:54.096Z,12.0
2022-09-21T10:34:25.485Z,12.0
2022-09-21T10:37:06.100Z,12.0
2022-09-21T10:39:36.701Z,12.0
2022-09-21T10:42:07.272Z,12.1
2022-09-21T10:44:37.869Z,12.2
2022-09-21T10:47:09.583Z,12.5
2022-09-21T10:49:42.649Z,12.7
2022-09-21T10:52:23.258Z,12.7
2022-09-21T10:54:57.552Z,12.5
2022-09-21T10:57:28.119Z,12.4
2022-09-21T10:59:58.703Z,12.3
2022-09-21T11:02:29.353Z,12.2
2022-09-21T11:05:00.215Z,12.2
2022-09-21T11:07:40.783Z,12.4
2022-09-21T11:12:41.523Z,12.5
2022-09-21T11:15:12.173Z,12.6
2022-09-21T11:17:42.939Z,12.6
2022-09-21T11:20:13.534Z,12.6
2022-09-21T11:22:57.306Z,12.6
2022-09-21T11:25:28.165Z,12.4
2022-09-21T11:27:58.759Z,12.5
2022-09-21T11:30:29.347Z,12.4
2022-09-21T11:33:00.074Z,12.4
2022-09-21T11:35:40.670Z,12.4
2022-09-21T11:38:11.259Z,12.4
2022-09-21T11:40:35.302Z,12.2
2022-09-21T11:43:05.905Z,12.2
2022-09-21T11:45:36.495Z,12.2
2022-09-21T11:48:10.862Z,12.2
2022-09-21T11:53:21.600Z,12.1
2022-09-21T11:55:52.197Z,12.1
2022-09-21T11:58:22.765Z,12.0
2022-09-21T12:00:53.322Z,11.9
2022-09-21T12:03:23.921Z,11.8
2022-09-21T12:06:04.531Z,11.8
2022-09-21T12:08:35.121Z,11.7
2022-09-21T12:11:05.692Z,11.7
2022-09-21T12:13:36.265Z,11.6
2022-09-21T12:16:06.882Z,11.8
2022-09-21T12:18:37.987Z,11.9
2022-09-21T12:21:18.974Z,12.0
2022-09-21T12:23:49.552Z,12.0
2022-09-21T12:26:20.124Z,12.2
2022-09-21T12:28:50.702Z,12.2
2022-09-21T12:34:01.449Z,12.3
2022-09-21T12:36:32.020Z,12.4
2022-09-21T12:39:02.689Z,12.4
2022-09-21T12:41:33.289Z,12.4
2022-09-21T12:44:03.862Z,12.4
2022-09-21T12:46:34.403Z,12.3
2022-09-21T12:49:14.995Z,12.2
2022-09-21T12:51:45.594Z,12.2
2022-09-21T12:54:16.192Z,12.2
2022-09-21T12:56:46.785Z,12.4
2022-09-21T12:59:23.752Z,12.6
2022-09-21T13:01:57.256Z,12.9
2022-09-21T13:04:28.924Z,13.0
2022-09-21T13:06:59.530Z,13.1
2022-09-21T13:09:40.111Z,13.1
2022-09-21T13:14:40.844Z,13.5
2022-09-21T13:17:11.427Z,14.0
2022-09-21T13:19:52.023Z,14.5
2022-09-21T13:22:22.647Z,14.6
2022-09-21T13:24:53.215Z,14.3
2022-09-21T13:27:23.832Z,14.0
2022-09-21T13:29:54.409Z,13.9
2022-09-21T13:32:25.080Z,13.6
2022-09-21T13:35:05.714Z,13.6
2022-09-21T13:37:36.260Z,13.8
2022-09-21T13:40:07.820Z,14.0
2022-09-21T13:42:39.381Z,14.6
2022-09-21T13:45:09.976Z,14.7
2022-09-21T13:47:50.761Z,14.8
2022-09-21T13:50:21.366Z,15.4
2022-09-21T13:55:22.126Z,14.6
2022-09-21T13:57:52.706Z,14.0
2022-09-21T14:00:23.303Z,14.0
2022-09-21T14:03:04.197Z,14.6
2022-09-21T14:05:34.954Z,14.7
2022-09-21T14:08:05.526Z,14.7
2022-09-21T14:10:36.111Z,14.6
2022-09-21T14:13:06.691Z,14.9
2022-09-21T14:15:37.282Z,15.0
2022-09-21T14:18:17.978Z,14.8
2022-09-21T14:20:48.579Z,14.4
2022-09-21T14:23:19.147Z,13.9
2022-09-21T14:25:49.720Z,13.8
2022-09-21T14:28:20.357Z,13.9
2022-09-21T14:30:50.947Z,14.4
2022-09-21T14:36:01.746Z,15.1
2022-09-21T14:41:02.460Z,15.8
2022-09-21T14:43:37.475Z,15.5
2022-09-21T14:46:18.081Z,15.3
2022-09-21T14:48:48.837Z,15.6
2022-09-21T14:51:19.417Z,16.1
2022-09-21T14:53:50.006Z,16.4
2022-09-21T14:56:20.804Z,16.3
2022-09-21T14:58:51.388Z,16.1
2022-09-21T15:01:31.975Z,16.0
2022-09-21T15:04:02.636Z,15.5
2022-09-21T15:06:33.299Z,15.4
2022-09-21T15:09:03.881Z,15.2
2022-09-21T15:11:34.445Z,14.6
2022-09-21T15:16:45.191Z,14.4
2022-09-21T15:19:15.802Z,14.5
2022-09-21T15:21:46.386Z,14.3
2022-09-21T15:24:17.006Z,14.5
2022-09-21T15:26:47.574Z,14.7
2022-09-21T15:29:18.167Z,14.8
2022-09-21T15:31:58.832Z,14.9
2022-09-21T15:34:29.438Z,15.2
2022-09-21T15:37:00.010Z,14.9
2022-09-21T15:39:30.595Z,15.0
2022-09-21T15:42:01.187Z,15.3
2022-09-21T15:44:41.790Z,15.2
2022-09-21T15:47:12.374Z,14.8
2022-09-21T15:49:42.964Z,14.4
2022-09-21T15:52:13.552Z,14.2
2022-09-21T15:57:14.267Z,14.0
2022-09-21T15:59:58.267Z,14.0
2022-09-21T16:02:28.844Z,13.7
2022-09-21T16:04:59.440Z,13.3
2022-09-21T16:07:30.007Z,13.1
2022-09-21T16:10:00.596Z,12.9
2022-09-21T16:12:31.167Z,12.8
2022-09-21T16:15:11.772Z,12.7
2022-09-21T16:17:42.401Z,12.5
2022-09-21T16:20:13.016Z,12.4
2022-09-21T16:22:43.589Z,12.3
2022-09-21T16:25:14.163Z,12.2
2022-09-21T16:27:44.739Z,12.1
2022-09-21T16:30:25.358Z,12.1
2022-09-21T16:32:55.953Z,12.0
2022-09-21T16:37:56.654Z,11.8
2022-09-21T16:40:27.323Z,11.7
2022-09-21T16:42:58.114Z,11.6
2022-09-21T16:45:38.718Z,11.5
2022-09-21T16:48:09.327Z,11.5
2022-09-21T16:50:39.903Z,11.4
2022-09-21T16:53:10.514Z,11.3
2022-09-21T16:55:41.095Z,11.3
2022-09-21T16:58:11.689Z,11.2
2022-09-21T17:00:54.694Z,11.1
2022-09-21T17:03:26.601Z,10.9
2022-09-21T17:05:57.197Z,10.8
2022-09-21T17:08:27.776Z,10.6
2022-09-21T17:10:58.328Z,10.5
2022-09-21T17:13:38.922Z,10.3
2022-09-21T17:18:39.621Z,9.8
2022-09-21T17:21:10.225Z,9.5
2022-09-21T17:23:40.801Z,9.3
2022-09-21T17:26:11.377Z,9.0
2022-09-21T17:28:52.012Z,8.8
2022-09-21T17:31:22.619Z,8.5
2022-09-21T17:33:53.385Z,8.2
2022-09-21T17:36:23.941Z,8.0
2022-09-21T17:38:54.536Z,7.7
2022-09-21T17:41:25.336Z,7.5
2022-09-21T17:44:05.944Z,7.4
2022-09-21T17:46:36.584Z,7.2
2022-09-21T17:49:07.289Z,7.1
2022-09-21T17:51:37.860Z,6.9
2022-09-21T17:54:08.459Z,6.8
2022-09-21T17:59:19.178Z,6.6
2022-09-21T18:01:49.744Z,6.6
2022-09-21T18:04:21.195Z,6.5
2022-09-21T18:06:51.767Z,6.6
2022-09-21T18:09:22.354Z,6.6
2022-09-21T18:12:02.878Z,6.6
2022-09-21T18:14:33.462Z,6.6
2022-09-21T18:17:04.041Z,6.6
2022-09-21T18:19:44.651Z,6.6
2022-09-21T18:22:15.227Z,6.6
2022-09-21T18:24:45.797Z,6.5
2022-09-21T18:27:26.378Z,6.4
2022-09-21T18:29:56.983Z,6.3
2022-09-21T18:32:27.575Z,6.2
2022-09-21T18:34:58.131Z,6.1
2022-09-21T18:39:58.875Z,6.0
2022-09-21T18:42:40.388Z,6.0
2022-09-21T18:45:11.074Z,6.0
2022-09-21T18:47:41.643Z,6.0
2022-09-21T18:50:12.230Z,5.9
2022-09-21T18:52:42.820Z,5.8
2022-09-21T18:55:13.414Z,5.8
2022-09-21T18:57:53.990Z,5.7
2022-09-21T19:00:24.568Z,5.7
2022-09-21T19:03:15.594Z,5.6
2022-09-21T19:05:27.312Z,5.6
2022-09-21T19:07:57.891Z,5.5
2022-09-21T19:10:28.486Z,5.4
2022-09-21T19:13:09.083Z,5.3
2022-09-21T19:15:58.891Z,5.2
2022-09-21T19:20:40.696Z,4.9
2022-09-21T19:23:11.235Z,4.8
2022-09-21T19:25:51.832Z,4.7
2022-09-21T19:28:22.484Z,4.8
2022-09-21T19:30:55.916Z,4.7
2022-09-21T19:33:38.785Z,4.7
2022-09-21T19:38:19.028Z,4.7
2022-09-21T19:40:59.605Z,4.7
2022-09-21T19:43:40.208Z,4.7
2022-09-21T19:46:10.842Z,4.7
2022-09-21T19:48:41.550Z,4.8
2022-09-21T19:51:12.128Z,4.7
2022-09-21T19:53:42.681Z,4.8
2022-09-21T19:56:23.287Z,4.9
2022-09-21T20:01:24.028Z,5.1
2022-09-21T20:03:54.838Z,5.2
2022-09-21T20:06:25.404Z,5.2
2022-09-21T20:08:56.025Z,5.2
2022-09-21T20:11:36.859Z,5.1
2022-09-21T20:14:07.421Z,4.9
2022-09-21T20:16:38.018Z,4.7
2022-09-21T20:19:08.834Z,4.7
2022-09-21T20:21:39.396Z,4.6
2022-09-21T20:24:19.984Z,4.7
2022-09-21T20:26:50.544Z,4.6
2022-09-21T20:29:21.135Z,4.5
2022-09-21T20:31:46.822Z,4.4
2022-09-21T20:34:17.413Z,4.3
2022-09-21T20:36:47.979Z,4.2
2022-09-21T20:41:58.719Z,4.1
2022-09-21T20:44:29.281Z,4.0
2022-09-21T20:46:59.864Z,4.2
2022-09-21T20:49:30.458Z,4.1
2022-09-21T20:52:01.038Z,4.0
2022-09-21T20:54:51.720Z,3.9
2022-09-21T20:57:22.282Z,3.9
2022-09-21T20:59:52.866Z,3.9
2022-09-21T21:02:23.448Z,3.8
2022-09-21T21:04:54.013Z,3.6
2022-09-21T21:07:28.349Z,3.5
2022-09-21T21:10:00.818Z,3.3
2022-09-21T21:12:31.393Z,3.3
2022-09-21T21:15:01.964Z,3.3
2022-09-21T21:17:32.539Z,3.4
2022-09-21T21:22:43.255Z,3.1
2022-09-21T21:25:18.163Z,2.7
2022-09-21T21:27:48.712Z,2.3
2022-09-21T21:30:19.296Z,2.1
2022-09-21T21:32:49.891Z,1.9
2022-09-21T21:35:20.487Z,1.9
2022-09-21T21:38:01.081Z,1.8
2022-09-21T21:40:31.704Z,1.7
2022-09-21T21:43:02.423Z,1.7
2022-09-21T21:45:33.066Z,1.7
2022-09-21T21:48:03.867Z,1.6
2022-09-21T21:50:34.445Z,1.5
2022-09-21T21:53:15.030Z,1.5
2022-09-21T21:55:45.610Z,1.5
2022-09-21T21:58:16.180Z,1.5
2022-09-21T22:03:16.906Z,1.4
2022-09-21T22:05:47.486Z,1.5
2022-09-21T22:08:28.089Z,1.4
2022-09-21T22:10:58.681Z,1.3
2022-09-21T22:13:32.971Z,1.2
2022-09-21T22:16:05.375Z,1.1
2022-09-21T22:18:36.077Z,1.0
2022-09-21T22:21:06.665Z,1.0
2022-09-21T22:23:47.267Z,1.0
2022-09-21T22:26:18.010Z,1.1
2022-09-21T22:28:48.592Z,1.1
2022-09-21T22:31:19.218Z,0.9
2022-09-21T22:33:50.076Z,0.8
2022-09-21T22:36:30.673Z,0.8
2022-09-21T22:39:01.256Z,0.8
2022-09-21T22:44:01.992Z,0.7
2022-09-21T22:46:32.588Z,0.7
2022-09-21T22:49:03.179Z,0.6
2022-09-21T22:51:43.763Z,0.5
2022-09-21T22:54:14.347Z,0.5
2022-09-21T22:56:44.930Z,0.4
2022-09-21T22:59:15.514Z,0.4
2022-09-21T23:01:46.075Z,0.6
2022-09-21T23:04:16.727Z,0.7
2022-09-21T23:06:57.411Z,0.7
2022-09-21T23:09:27.993Z,0.6
2022-09-21T23:11:58.550Z,0.5
2022-09-21T23:14:29.123Z,0.4
2022-09-21T23:16:59.687Z,0.4
2022-09-21T23:19:30.291Z,0.3
2022-09-21T23:24:41.014Z,0.3
2022-09-21T23:27:11.579Z,0.4
2022-09-21T23:29:42.153Z,0.3
2022-09-21T23:32:12.755Z,0.3
2022-09-21T23:34:53.404Z,0.3
2022-09-21T23:37:23.961Z,0.3
2022-09-21T23:39:54.543Z,0.3
2022-09-21T23:42:25.213Z,0.3
2022-09-21T23:44:55.809Z,0.2
2022-09-21T23:47:26.383Z,0.0
2022-09-21T23:50:06.987Z,0.0
2022-09-21T23:52:37.523Z,0.1
2022-09-21T23:55:08.106Z,0.1
2022-09-21T23:57:38.703Z,0.2
